sensor_id;sensor_type;location;lat;lon;timestamp;temperature;humidity
78028;DHT22;74605;45.864;11.474;2023-12-20T00:01:40;1.10;68.60
78028;DHT22;74605;45.864;11.474;2023-12-20T00:04:06;0.90;68.90
78028;DHT22;74605;45.864;11.474;2023-12-20T00:06:32;0.90;69.40
78028;DHT22;74605;45.864;11.474;2023-12-20T00:08:58;1.00;69.80
78028;DHT22;74605;45.864;11.474;2023-12-20T00:11:24;1.20;69.10
78028;DHT22;74605;45.864;11.474;2023-12-20T00:13:51;2.10;68.10
78028;DHT22;74605;45.864;11.474;2023-12-20T00:16:17;2.50;67.50
78028;DHT22;74605;45.864;11.474;2023-12-20T00:18:43;2.90;66.70
78028;DHT22;74605;45.864;11.474;2023-12-20T00:21:09;3.20;66.20
78028;DHT22;74605;45.864;11.474;2023-12-20T00:23:35;3.20;65.90
78028;DHT22;74605;45.864;11.474;2023-12-20T00:26:01;2.80;65.90
78028;DHT22;74605;45.864;11.474;2023-12-20T00:28:27;2.00;67.30
78028;DHT22;74605;45.864;11.474;2023-12-20T00:30:53;1.40;67.80
78028;DHT22;74605;45.864;11.474;2023-12-20T00:33:19;1.60;68.00
78028;DHT22;74605;45.864;11.474;2023-12-20T00:35:45;1.60;67.90
78028;DHT22;74605;45.864;11.474;2023-12-20T00:38:11;2.00;67.70
78028;DHT22;74605;45.864;11.474;2023-12-20T00:40:37;1.90;67.50
78028;DHT22;74605;45.864;11.474;2023-12-20T00:43:03;1.80;67.70
78028;DHT22;74605;45.864;11.474;2023-12-20T00:45:29;1.60;67.90
78028;DHT22;74605;45.864;11.474;2023-12-20T00:47:55;1.70;68.00
78028;DHT22;74605;45.864;11.474;2023-12-20T00:50:21;2.10;67.50
78028;DHT22;74605;45.864;11.474;2023-12-20T00:52:47;2.40;67.00
78028;DHT22;74605;45.864;11.474;2023-12-20T00:55:13;2.20;66.90
78028;DHT22;74605;45.864;11.474;2023-12-20T00:57:39;2.10;67.20
78028;DHT22;74605;45.864;11.474;2023-12-20T01:00:06;2.10;67.30
78028;DHT22;74605;45.864;11.474;2023-12-20T01:02:35;1.60;68.00
78028;DHT22;74605;45.864;11.474;2023-12-20T01:05:01;1.20;68.80
78028;DHT22;74605;45.864;11.474;2023-12-20T01:07:27;0.90;69.30
78028;DHT22;74605;45.864;11.474;2023-12-20T01:09:53;1.00;69.80
78028;DHT22;74605;45.864;11.474;2023-12-20T01:12:19;1.10;69.50
78028;DHT22;74605;45.864;11.474;2023-12-20T01:14:46;1.00;69.50
78028;DHT22;74605;45.864;11.474;2023-12-20T01:17:12;1.20;69.30
78028;DHT22;74605;45.864;11.474;2023-12-20T01:19:38;1.40;68.70
78028;DHT22;74605;45.864;11.474;2023-12-20T01:22:04;2.00;67.70
78028;DHT22;74605;45.864;11.474;2023-12-20T01:24:31;2.30;66.90
78028;DHT22;74605;45.864;11.474;2023-12-20T01:26:57;2.60;66.60
78028;DHT22;74605;45.864;11.474;2023-12-20T01:29:23;2.90;66.30
78028;DHT22;74605;45.864;11.474;2023-12-20T01:31:48;2.70;66.70
78028;DHT22;74605;45.864;11.474;2023-12-20T01:34:14;2.30;67.00
78028;DHT22;74605;45.864;11.474;2023-12-20T01:36:41;2.20;67.50
78028;DHT22;74605;45.864;11.474;2023-12-20T01:39:07;2.40;67.50
78028;DHT22;74605;45.864;11.474;2023-12-20T01:41:33;2.60;67.30
78028;DHT22;74605;45.864;11.474;2023-12-20T01:43:59;2.40;67.40
78028;DHT22;74605;45.864;11.474;2023-12-20T01:46:25;2.30;67.50
78028;DHT22;74605;45.864;11.474;2023-12-20T01:48:52;2.30;67.70
78028;DHT22;74605;45.864;11.474;2023-12-20T01:51:19;2.20;67.70
78028;DHT22;74605;45.864;11.474;2023-12-20T01:53:47;2.50;67.40
78028;DHT22;74605;45.864;11.474;2023-12-20T01:56:14;2.30;67.50
78028;DHT22;74605;45.864;11.474;2023-12-20T01:58:44;2.20;67.50
78028;DHT22;74605;45.864;11.474;2023-12-20T02:01:12;1.90;67.80
78028;DHT22;74605;45.864;11.474;2023-12-20T02:03:40;2.50;67.30
78028;DHT22;74605;45.864;11.474;2023-12-20T02:06:08;2.70;66.80
78028;DHT22;74605;45.864;11.474;2023-12-20T02:08:35;1.70;67.50
78028;DHT22;74605;45.864;11.474;2023-12-20T02:11:02;1.40;68.20
78028;DHT22;74605;45.864;11.474;2023-12-20T02:13:28;1.30;68.20
78028;DHT22;74605;45.864;11.474;2023-12-20T02:15:56;1.30;68.50
78028;DHT22;74605;45.864;11.474;2023-12-20T02:18:22;1.70;68.20
78028;DHT22;74605;45.864;11.474;2023-12-20T02:20:48;2.00;67.80
78028;DHT22;74605;45.864;11.474;2023-12-20T02:23:14;1.70;68.00
78028;DHT22;74605;45.864;11.474;2023-12-20T02:25:40;1.50;68.70
78028;DHT22;74605;45.864;11.474;2023-12-20T02:28:06;1.20;69.00
78028;DHT22;74605;45.864;11.474;2023-12-20T02:30:32;1.70;68.30
78028;DHT22;74605;45.864;11.474;2023-12-20T02:33:00;2.20;67.50
78028;DHT22;74605;45.864;11.474;2023-12-20T02:35:26;2.30;67.10
78028;DHT22;74605;45.864;11.474;2023-12-20T02:37:52;1.60;67.90
78028;DHT22;74605;45.864;11.474;2023-12-20T02:40:18;1.40;68.20
78028;DHT22;74605;45.864;11.474;2023-12-20T02:42:44;1.80;67.90
78028;DHT22;74605;45.864;11.474;2023-12-20T02:45:10;2.10;67.60
78028;DHT22;74605;45.864;11.474;2023-12-20T02:47:36;2.30;67.30
78028;DHT22;74605;45.864;11.474;2023-12-20T02:50:02;2.50;67.00
78028;DHT22;74605;45.864;11.474;2023-12-20T02:52:28;2.40;67.00
78028;DHT22;74605;45.864;11.474;2023-12-20T02:54:54;2.60;66.80
78028;DHT22;74605;45.864;11.474;2023-12-20T02:57:20;2.50;66.80
78028;DHT22;74605;45.864;11.474;2023-12-20T02:59:46;2.70;66.80
78028;DHT22;74605;45.864;11.474;2023-12-20T03:02:12;2.40;66.70
78028;DHT22;74605;45.864;11.474;2023-12-20T03:04:38;1.70;67.00
78028;DHT22;74605;45.864;11.474;2023-12-20T03:07:04;1.10;67.70
78028;DHT22;74605;45.864;11.474;2023-12-20T03:09:30;0.90;68.70
78028;DHT22;74605;45.864;11.474;2023-12-20T03:11:56;0.80;69.30
78028;DHT22;74605;45.864;11.474;2023-12-20T03:14:22;1.40;68.70
78028;DHT22;74605;45.864;11.474;2023-12-20T03:16:50;1.70;68.20
78028;DHT22;74605;45.864;11.474;2023-12-20T03:19:17;1.40;68.50
78028;DHT22;74605;45.864;11.474;2023-12-20T03:21:45;1.50;68.30
78028;DHT22;74605;45.864;11.474;2023-12-20T03:24:11;1.70;67.90
78028;DHT22;74605;45.864;11.474;2023-12-20T03:26:38;1.70;67.90
78028;DHT22;74605;45.864;11.474;2023-12-20T03:29:04;2.00;67.50
78028;DHT22;74605;45.864;11.474;2023-12-20T03:31:29;2.30;67.10
78028;DHT22;74605;45.864;11.474;2023-12-20T03:33:55;2.30;66.90
78028;DHT22;74605;45.864;11.474;2023-12-20T03:36:21;2.40;66.70
78028;DHT22;74605;45.864;11.474;2023-12-20T03:38:47;1.50;67.10
78028;DHT22;74605;45.864;11.474;2023-12-20T03:41:13;1.30;67.90
78028;DHT22;74605;45.864;11.474;2023-12-20T03:43:39;1.20;68.10
78028;DHT22;74605;45.864;11.474;2023-12-20T03:46:07;1.50;68.10
78028;DHT22;74605;45.864;11.474;2023-12-20T03:48:33;1.80;67.90
78028;DHT22;74605;45.864;11.474;2023-12-20T03:50:59;2.00;67.60
78028;DHT22;74605;45.864;11.474;2023-12-20T03:53:25;1.70;67.70
78028;DHT22;74605;45.864;11.474;2023-12-20T03:55:51;1.40;68.10
78028;DHT22;74605;45.864;11.474;2023-12-20T03:58:17;1.70;68.00
78028;DHT22;74605;45.864;11.474;2023-12-20T04:00:43;1.90;67.80
78028;DHT22;74605;45.864;11.474;2023-12-20T04:03:09;2.10;67.70
78028;DHT22;74605;45.864;11.474;2023-12-20T04:05:39;2.10;67.40
78028;DHT22;74605;45.864;11.474;2023-12-20T04:08:05;2.20;67.20
78028;DHT22;74605;45.864;11.474;2023-12-20T04:10:31;2.20;67.20
78028;DHT22;74605;45.864;11.474;2023-12-20T04:12:57;2.10;67.40
78028;DHT22;74605;45.864;11.474;2023-12-20T04:15:23;2.30;67.40
78028;DHT22;74605;45.864;11.474;2023-12-20T04:17:49;2.40;67.30
78028;DHT22;74605;45.864;11.474;2023-12-20T04:20:15;2.30;67.00
78028;DHT22;74605;45.864;11.474;2023-12-20T04:22:41;1.70;67.60
78028;DHT22;74605;45.864;11.474;2023-12-20T04:25:08;1.30;68.40
78028;DHT22;74605;45.864;11.474;2023-12-20T04:27:34;0.90;69.00
78028;DHT22;74605;45.864;11.474;2023-12-20T04:30:00;1.10;69.10
78028;DHT22;74605;45.864;11.474;2023-12-20T04:32:26;1.10;69.10
78028;DHT22;74605;45.864;11.474;2023-12-20T04:34:52;1.30;69.30
78028;DHT22;74605;45.864;11.474;2023-12-20T04:37:18;1.30;68.70
78028;DHT22;74605;45.864;11.474;2023-12-20T04:39:44;1.20;68.90
78028;DHT22;74605;45.864;11.474;2023-12-20T04:42:10;1.60;68.80
78028;DHT22;74605;45.864;11.474;2023-12-20T04:44:36;2.00;67.90
78028;DHT22;74605;45.864;11.474;2023-12-20T04:47:02;2.10;67.50
78028;DHT22;74605;45.864;11.474;2023-12-20T04:49:28;2.20;67.20
78028;DHT22;74605;45.864;11.474;2023-12-20T04:51:54;2.40;67.10
78028;DHT22;74605;45.864;11.474;2023-12-20T04:54:22;2.30;67.30
78028;DHT22;74605;45.864;11.474;2023-12-20T04:56:48;2.10;67.50
78028;DHT22;74605;45.864;11.474;2023-12-20T04:59:13;2.00;67.30
78028;DHT22;74605;45.864;11.474;2023-12-20T05:01:39;2.10;67.30
78028;DHT22;74605;45.864;11.474;2023-12-20T05:04:05;2.30;67.10
78028;DHT22;74605;45.864;11.474;2023-12-20T05:06:31;2.30;66.50
78028;DHT22;74605;45.864;11.474;2023-12-20T05:08:57;2.70;66.40
78028;DHT22;74605;45.864;11.474;2023-12-20T05:11:23;2.60;66.10
78028;DHT22;74605;45.864;11.474;2023-12-20T05:13:50;2.80;66.00
78028;DHT22;74605;45.864;11.474;2023-12-20T05:16:16;2.80;66.20
78028;DHT22;74605;45.864;11.474;2023-12-20T05:18:44;2.40;66.70
78028;DHT22;74605;45.864;11.474;2023-12-20T05:21:11;2.20;67.20
78028;DHT22;74605;45.864;11.474;2023-12-20T05:23:37;1.90;67.70
78028;DHT22;74605;45.864;11.474;2023-12-20T05:26:03;2.20;67.60
78028;DHT22;74605;45.864;11.474;2023-12-20T05:28:29;2.00;67.80
78028;DHT22;74605;45.864;11.474;2023-12-20T05:30:55;2.00;67.80
78028;DHT22;74605;45.864;11.474;2023-12-20T05:33:21;2.20;67.50
78028;DHT22;74605;45.864;11.474;2023-12-20T05:35:47;2.20;67.60
78028;DHT22;74605;45.864;11.474;2023-12-20T05:38:13;1.30;68.60
78028;DHT22;74605;45.864;11.474;2023-12-20T05:40:39;1.10;69.10
78028;DHT22;74605;45.864;11.474;2023-12-20T05:43:05;1.30;69.30
78028;DHT22;74605;45.864;11.474;2023-12-20T05:45:31;1.50;69.10
78028;DHT22;74605;45.864;11.474;2023-12-20T05:47:57;1.80;68.70
78028;DHT22;74605;45.864;11.474;2023-12-20T05:50:24;2.30;68.20
78028;DHT22;74605;45.864;11.474;2023-12-20T05:52:50;2.60;67.50
78028;DHT22;74605;45.864;11.474;2023-12-20T05:55:16;2.90;67.40
78028;DHT22;74605;45.864;11.474;2023-12-20T05:57:42;2.50;67.80
78028;DHT22;74605;45.864;11.474;2023-12-20T06:00:09;2.20;68.20
78028;DHT22;74605;45.864;11.474;2023-12-20T06:02:35;1.70;68.80
78028;DHT22;74605;45.864;11.474;2023-12-20T06:05:04;1.70;69.50
78028;DHT22;74605;45.864;11.474;2023-12-20T06:07:30;1.80;69.20
78028;DHT22;74605;45.864;11.474;2023-12-20T06:09:56;1.80;69.20
78028;DHT22;74605;45.864;11.474;2023-12-20T06:12:22;1.80;69.10
78028;DHT22;74605;45.864;11.474;2023-12-20T06:14:48;1.80;69.50
78028;DHT22;74605;45.864;11.474;2023-12-20T06:17:14;2.10;68.90
78028;DHT22;74605;45.864;11.474;2023-12-20T06:19:40;2.50;68.50
78028;DHT22;74605;45.864;11.474;2023-12-20T06:22:08;2.00;68.70
78028;DHT22;74605;45.864;11.474;2023-12-20T06:24:34;2.40;68.60
78028;DHT22;74605;45.864;11.474;2023-12-20T06:27:00;2.10;68.60
78028;DHT22;74605;45.864;11.474;2023-12-20T06:29:26;2.40;68.50
78028;DHT22;74605;45.864;11.474;2023-12-20T06:31:52;2.40;68.00
78028;DHT22;74605;45.864;11.474;2023-12-20T06:34:18;2.20;68.80
78028;DHT22;74605;45.864;11.474;2023-12-20T06:36:44;2.50;68.10
78028;DHT22;74605;45.864;11.474;2023-12-20T06:39:10;2.50;67.90
78028;DHT22;74605;45.864;11.474;2023-12-20T06:41:38;2.40;68.00
78028;DHT22;74605;45.864;11.474;2023-12-20T06:44:05;2.70;67.80
78028;DHT22;74605;45.864;11.474;2023-12-20T06:46:31;2.60;67.80
78028;DHT22;74605;45.864;11.474;2023-12-20T06:48:57;2.50;68.00
78028;DHT22;74605;45.864;11.474;2023-12-20T06:51:23;2.00;69.30
78028;DHT22;74605;45.864;11.474;2023-12-20T06:53:52;2.40;69.30
78028;DHT22;74605;45.864;11.474;2023-12-20T06:56:18;2.40;69.10
78028;DHT22;74605;45.864;11.474;2023-12-20T06:58:44;2.60;68.70
78028;DHT22;74605;45.864;11.474;2023-12-20T07:01:13;2.90;68.60
78028;DHT22;74605;45.864;11.474;2023-12-20T07:03:39;2.90;68.60
78028;DHT22;74605;45.864;11.474;2023-12-20T07:06:06;3.10;68.20
78028;DHT22;74605;45.864;11.474;2023-12-20T07:08:32;3.40;67.70
78028;DHT22;74605;45.864;11.474;2023-12-20T07:10:58;3.50;68.00
78028;DHT22;74605;45.864;11.474;2023-12-20T07:13:24;3.00;68.30
78028;DHT22;74605;45.864;11.474;2023-12-20T07:15:50;3.00;68.50
78028;DHT22;74605;45.864;11.474;2023-12-20T07:18:16;2.80;68.90
78028;DHT22;74605;45.864;11.474;2023-12-20T07:20:43;2.50;69.20
78028;DHT22;74605;45.864;11.474;2023-12-20T07:23:09;2.70;68.90
78028;DHT22;74605;45.864;11.474;2023-12-20T07:25:35;2.70;69.50
78028;DHT22;74605;45.864;11.474;2023-12-20T07:28:01;2.40;69.70
78028;DHT22;74605;45.864;11.474;2023-12-20T07:30:26;2.70;69.60
78028;DHT22;74605;45.864;11.474;2023-12-20T07:32:53;2.70;69.50
78028;DHT22;74605;45.864;11.474;2023-12-20T07:35:19;2.90;70.40
78028;DHT22;74605;45.864;11.474;2023-12-20T07:37:45;3.00;69.30
78028;DHT22;74605;45.864;11.474;2023-12-20T07:40:11;3.00;69.10
78028;DHT22;74605;45.864;11.474;2023-12-20T07:42:37;2.90;69.20
78028;DHT22;74605;45.864;11.474;2023-12-20T07:45:03;3.00;69.30
78028;DHT22;74605;45.864;11.474;2023-12-20T07:47:29;3.00;68.60
78028;DHT22;74605;45.864;11.474;2023-12-20T07:49:55;3.40;68.10
78028;DHT22;74605;45.864;11.474;2023-12-20T07:52:21;3.40;68.00
78028;DHT22;74605;45.864;11.474;2023-12-20T07:54:51;3.60;68.00
78028;DHT22;74605;45.864;11.474;2023-12-20T07:57:17;3.70;67.70
78028;DHT22;74605;45.864;11.474;2023-12-20T07:59:43;4.00;67.50
78028;DHT22;74605;45.864;11.474;2023-12-20T08:02:09;4.20;67.30
78028;DHT22;74605;45.864;11.474;2023-12-20T08:04:35;4.30;67.20
78028;DHT22;74605;45.864;11.474;2023-12-20T08:07:01;4.30;67.70
78028;DHT22;74605;45.864;11.474;2023-12-20T08:09:27;4.00;67.90
78028;DHT22;74605;45.864;11.474;2023-12-20T08:11:53;4.00;68.70
78028;DHT22;74605;45.864;11.474;2023-12-20T08:14:19;3.40;69.70
78028;DHT22;74605;45.864;11.474;2023-12-20T08:16:45;3.10;70.50
78028;DHT22;74605;45.864;11.474;2023-12-20T08:19:11;3.60;70.60
78028;DHT22;74605;45.864;11.474;2023-12-20T08:21:37;3.30;70.60
78028;DHT22;74605;45.864;11.474;2023-12-20T08:24:03;3.40;71.20
78028;DHT22;74605;45.864;11.474;2023-12-20T08:26:29;4.00;69.00
78028;DHT22;74605;45.864;11.474;2023-12-20T08:28:55;4.10;68.60
78028;DHT22;74605;45.864;11.474;2023-12-20T08:31:21;4.20;68.20
78028;DHT22;74605;45.864;11.474;2023-12-20T08:33:48;4.20;68.20
78028;DHT22;74605;45.864;11.474;2023-12-20T08:36:15;4.60;67.70
78028;DHT22;74605;45.864;11.474;2023-12-20T08:38:43;4.50;68.20
78028;DHT22;74605;45.864;11.474;2023-12-20T08:41:09;4.20;69.10
78028;DHT22;74605;45.864;11.474;2023-12-20T08:43:35;3.90;70.30
78028;DHT22;74605;45.864;11.474;2023-12-20T08:46:02;4.00;70.00
78028;DHT22;74605;45.864;11.474;2023-12-20T08:48:28;3.90;70.20
78028;DHT22;74605;45.864;11.474;2023-12-20T08:50:54;4.10;71.00
78028;DHT22;74605;45.864;11.474;2023-12-20T08:53:20;4.30;70.20
78028;DHT22;74605;45.864;11.474;2023-12-20T08:55:47;4.50;69.00
78028;DHT22;74605;45.864;11.474;2023-12-20T08:58:13;4.80;68.10
78028;DHT22;74605;45.864;11.474;2023-12-20T09:00:39;4.80;68.90
78028;DHT22;74605;45.864;11.474;2023-12-20T09:03:06;4.70;69.60
78028;DHT22;74605;45.864;11.474;2023-12-20T09:05:31;4.80;70.30
78028;DHT22;74605;45.864;11.474;2023-12-20T09:07:57;4.80;69.20
78028;DHT22;74605;45.864;11.474;2023-12-20T09:10:23;5.10;68.40
78028;DHT22;74605;45.864;11.474;2023-12-20T09:12:52;5.30;68.30
78028;DHT22;74605;45.864;11.474;2023-12-20T09:15:26;5.30;68.20
78028;DHT22;74605;45.864;11.474;2023-12-20T09:17:53;5.40;67.40
78028;DHT22;74605;45.864;11.474;2023-12-20T09:20:19;5.70;67.40
78028;DHT22;74605;45.864;11.474;2023-12-20T09:22:45;5.50;68.50
78028;DHT22;74605;45.864;11.474;2023-12-20T09:25:11;5.40;69.40
78028;DHT22;74605;45.864;11.474;2023-12-20T09:27:38;5.20;68.60
78028;DHT22;74605;45.864;11.474;2023-12-20T09:30:05;6.00;68.20
78028;DHT22;74605;45.864;11.474;2023-12-20T09:32:31;6.00;68.40
78028;DHT22;74605;45.864;11.474;2023-12-20T09:34:57;5.70;68.30
78028;DHT22;74605;45.864;11.474;2023-12-20T09:37:26;5.60;66.30
78028;DHT22;74605;45.864;11.474;2023-12-20T09:39:52;5.90;66.50
78028;DHT22;74605;45.864;11.474;2023-12-20T09:42:38;6.00;65.60
78028;DHT22;74605;45.864;11.474;2023-12-20T09:45:08;6.30;67.50
78028;DHT22;74605;45.864;11.474;2023-12-20T09:47:35;5.70;68.40
78028;DHT22;74605;45.864;11.474;2023-12-20T09:50:02;5.90;68.70
78028;DHT22;74605;45.864;11.474;2023-12-20T09:52:28;5.70;68.90
78028;DHT22;74605;45.864;11.474;2023-12-20T09:54:55;5.80;68.90
78028;DHT22;74605;45.864;11.474;2023-12-20T09:57:22;5.80;68.80
78028;DHT22;74605;45.864;11.474;2023-12-20T09:59:48;5.90;69.10
78028;DHT22;74605;45.864;11.474;2023-12-20T10:02:14;6.10;68.10
78028;DHT22;74605;45.864;11.474;2023-12-20T10:04:46;6.10;68.10
78028;DHT22;74605;45.864;11.474;2023-12-20T10:07:15;6.30;66.90
78028;DHT22;74605;45.864;11.474;2023-12-20T10:09:42;6.50;67.10
78028;DHT22;74605;45.864;11.474;2023-12-20T10:12:08;6.70;68.30
78028;DHT22;74605;45.864;11.474;2023-12-20T10:21:11;6.90;69.00
78028;DHT22;74605;45.864;11.474;2023-12-20T10:23:37;6.70;69.10
78028;DHT22;74605;45.864;11.474;2023-12-20T10:26:04;7.00;68.80
78028;DHT22;74605;45.864;11.474;2023-12-20T10:28:34;7.10;68.00
78028;DHT22;74605;45.864;11.474;2023-12-20T10:31:00;7.10;67.90
78028;DHT22;74605;45.864;11.474;2023-12-20T10:33:30;7.30;67.50
78028;DHT22;74605;45.864;11.474;2023-12-20T10:35:58;7.40;67.20
78028;DHT22;74605;45.864;11.474;2023-12-20T10:38:24;7.40;67.10
78028;DHT22;74605;45.864;11.474;2023-12-20T10:40:54;7.60;67.30
78028;DHT22;74605;45.864;11.474;2023-12-20T10:43:20;7.70;67.60
78028;DHT22;74605;45.864;11.474;2023-12-20T10:45:46;7.70;67.40
78028;DHT22;74605;45.864;11.474;2023-12-20T10:48:12;7.90;67.40
78028;DHT22;74605;45.864;11.474;2023-12-20T10:50:39;7.70;67.10
78028;DHT22;74605;45.864;11.474;2023-12-20T10:53:07;7.90;66.60
78028;DHT22;74605;45.864;11.474;2023-12-20T10:55:33;7.70;67.00
78028;DHT22;74605;45.864;11.474;2023-12-20T10:58:08;8.00;67.10
78028;DHT22;74605;45.864;11.474;2023-12-20T11:00:39;8.00;66.50
78028;DHT22;74605;45.864;11.474;2023-12-20T11:03:09;7.90;66.80
78028;DHT22;74605;45.864;11.474;2023-12-20T11:05:42;8.00;67.60
78028;DHT22;74605;45.864;11.474;2023-12-20T11:09:06;8.00;67.70
78028;DHT22;74605;45.864;11.474;2023-12-20T11:14:13;7.90;66.80
78028;DHT22;74605;45.864;11.474;2023-12-20T11:16:41;8.20;67.50
78028;DHT22;74605;45.864;11.474;2023-12-20T11:19:07;8.30;66.70
78028;DHT22;74605;45.864;11.474;2023-12-20T11:21:33;8.30;66.50
78028;DHT22;74605;45.864;11.474;2023-12-20T11:24:00;8.40;67.30
78028;DHT22;74605;45.864;11.474;2023-12-20T11:26:27;8.40;67.70
78028;DHT22;74605;45.864;11.474;2023-12-20T11:29:29;8.50;65.20
78028;DHT22;74605;45.864;11.474;2023-12-20T11:31:55;8.50;64.20
78028;DHT22;74605;45.864;11.474;2023-12-20T11:34:21;8.50;63.90
78028;DHT22;74605;45.864;11.474;2023-12-20T11:36:46;8.20;64.10
78028;DHT22;74605;45.864;11.474;2023-12-20T11:39:20;8.30;63.40
78028;DHT22;74605;45.864;11.474;2023-12-20T11:41:46;8.20;63.80
78028;DHT22;74605;45.864;11.474;2023-12-20T11:44:12;8.30;63.60
78028;DHT22;74605;45.864;11.474;2023-12-20T11:46:39;8.40;63.60
78028;DHT22;74605;45.864;11.474;2023-12-20T11:49:05;8.50;63.70
78028;DHT22;74605;45.864;11.474;2023-12-20T11:51:31;8.40;63.50
78028;DHT22;74605;45.864;11.474;2023-12-20T11:53:57;8.40;63.10
78028;DHT22;74605;45.864;11.474;2023-12-20T11:56:23;8.30;63.30
78028;DHT22;74605;45.864;11.474;2023-12-20T11:58:49;8.30;63.20
78028;DHT22;74605;45.864;11.474;2023-12-20T12:01:15;8.40;62.50
78028;DHT22;74605;45.864;11.474;2023-12-20T12:03:41;8.40;63.10
78028;DHT22;74605;45.864;11.474;2023-12-20T12:06:08;8.40;62.70
78028;DHT22;74605;45.864;11.474;2023-12-20T12:08:35;8.40;63.00
78028;DHT22;74605;45.864;11.474;2023-12-20T12:11:02;8.40;62.90
78028;DHT22;74605;45.864;11.474;2023-12-20T12:13:29;8.40;62.70
78028;DHT22;74605;45.864;11.474;2023-12-20T12:15:55;8.50;62.30
78028;DHT22;74605;45.864;11.474;2023-12-20T12:18:21;8.50;62.20
78028;DHT22;74605;45.864;11.474;2023-12-20T12:20:47;8.50;62.50
78028;DHT22;74605;45.864;11.474;2023-12-20T12:23:13;8.70;62.30
78028;DHT22;74605;45.864;11.474;2023-12-20T12:25:39;8.80;62.20
78028;DHT22;74605;45.864;11.474;2023-12-20T12:28:05;8.60;62.30
78028;DHT22;74605;45.864;11.474;2023-12-20T12:30:31;8.70;62.60
78028;DHT22;74605;45.864;11.474;2023-12-20T12:32:57;8.70;62.20
78028;DHT22;74605;45.864;11.474;2023-12-20T12:35:26;8.60;62.70
78028;DHT22;74605;45.864;11.474;2023-12-20T12:37:52;8.70;63.30
78028;DHT22;74605;45.864;11.474;2023-12-20T12:40:18;8.60;64.30
78028;DHT22;74605;45.864;11.474;2023-12-20T12:42:45;8.40;64.70
78028;DHT22;74605;45.864;11.474;2023-12-20T12:45:11;8.60;65.00
78028;DHT22;74605;45.864;11.474;2023-12-20T12:47:38;8.50;64.40
78028;DHT22;74605;45.864;11.474;2023-12-20T12:50:04;8.40;63.40
78028;DHT22;74605;45.864;11.474;2023-12-20T12:52:31;8.50;62.80
78028;DHT22;74605;45.864;11.474;2023-12-20T12:54:57;8.40;62.60
78028;DHT22;74605;45.864;11.474;2023-12-20T12:57:23;8.50;62.80
78028;DHT22;74605;45.864;11.474;2023-12-20T12:59:49;8.50;62.30
78028;DHT22;74605;45.864;11.474;2023-12-20T13:02:16;8.60;62.20
78028;DHT22;74605;45.864;11.474;2023-12-20T13:04:42;8.90;63.10
78028;DHT22;74605;45.864;11.474;2023-12-20T13:07:09;9.20;62.80
78028;DHT22;74605;45.864;11.474;2023-12-20T13:09:39;9.20;62.70
78028;DHT22;74605;45.864;11.474;2023-12-20T13:12:08;9.40;62.50
78028;DHT22;74605;45.864;11.474;2023-12-20T13:14:34;9.40;62.00
78028;DHT22;74605;45.864;11.474;2023-12-20T13:17:02;9.40;62.40
78028;DHT22;74605;45.864;11.474;2023-12-20T13:19:29;9.50;61.70
78028;DHT22;74605;45.864;11.474;2023-12-20T13:21:56;9.60;62.50
78028;DHT22;74605;45.864;11.474;2023-12-20T13:24:22;9.70;61.80
78028;DHT22;74605;45.864;11.474;2023-12-20T13:26:47;9.90;62.40
78028;DHT22;74605;45.864;11.474;2023-12-20T13:29:13;9.90;62.50
78028;DHT22;74605;45.864;11.474;2023-12-20T13:31:39;10.00;61.70
78028;DHT22;74605;45.864;11.474;2023-12-20T13:34:06;9.80;62.30
78028;DHT22;74605;45.864;11.474;2023-12-20T13:36:33;9.90;61.90
78028;DHT22;74605;45.864;11.474;2023-12-20T13:38:58;9.90;61.80
78028;DHT22;74605;45.864;11.474;2023-12-20T13:41:25;9.50;61.70
78028;DHT22;74605;45.864;11.474;2023-12-20T13:43:50;9.30;62.20
78028;DHT22;74605;45.864;11.474;2023-12-20T13:46:16;9.20;62.20
78028;DHT22;74605;45.864;11.474;2023-12-20T13:48:42;9.10;62.40
78028;DHT22;74605;45.864;11.474;2023-12-20T13:51:08;9.00;62.50
78028;DHT22;74605;45.864;11.474;2023-12-20T13:53:34;8.90;62.30
78028;DHT22;74605;45.864;11.474;2023-12-20T13:56:00;8.90;62.20
78028;DHT22;74605;45.864;11.474;2023-12-20T13:58:26;8.80;62.40
78028;DHT22;74605;45.864;11.474;2023-12-20T14:00:52;8.70;62.30
78028;DHT22;74605;45.864;11.474;2023-12-20T14:03:18;8.60;62.30
78028;DHT22;74605;45.864;11.474;2023-12-20T14:05:45;8.70;62.60
78028;DHT22;74605;45.864;11.474;2023-12-20T14:08:11;8.90;62.30
78028;DHT22;74605;45.864;11.474;2023-12-20T14:10:38;8.80;61.80
78028;DHT22;74605;45.864;11.474;2023-12-20T14:13:04;8.80;62.10
78028;DHT22;74605;45.864;11.474;2023-12-20T14:15:31;8.90;62.00
78028;DHT22;74605;45.864;11.474;2023-12-20T14:18:06;8.90;61.90
78028;DHT22;74605;45.864;11.474;2023-12-20T14:20:32;8.80;61.80
78028;DHT22;74605;45.864;11.474;2023-12-20T14:23:03;8.80;62.50
78028;DHT22;74605;45.864;11.474;2023-12-20T14:25:29;8.90;62.30
78028;DHT22;74605;45.864;11.474;2023-12-20T14:27:57;8.80;62.30
78028;DHT22;74605;45.864;11.474;2023-12-20T14:30:23;8.80;62.70
78028;DHT22;74605;45.864;11.474;2023-12-20T14:32:49;8.90;62.90
78028;DHT22;74605;45.864;11.474;2023-12-20T14:35:15;8.90;63.10
78028;DHT22;74605;45.864;11.474;2023-12-20T14:37:41;8.70;63.50
78028;DHT22;74605;45.864;11.474;2023-12-20T14:40:07;8.80;63.30
78028;DHT22;74605;45.864;11.474;2023-12-20T14:42:36;8.80;63.40
78028;DHT22;74605;45.864;11.474;2023-12-20T14:45:03;8.80;63.30
78028;DHT22;74605;45.864;11.474;2023-12-20T14:47:29;8.70;63.40
78028;DHT22;74605;45.864;11.474;2023-12-20T14:49:55;8.60;63.50
78028;DHT22;74605;45.864;11.474;2023-12-20T14:52:20;8.50;63.70
78028;DHT22;74605;45.864;11.474;2023-12-20T14:54:47;8.50;63.90
78028;DHT22;74605;45.864;11.474;2023-12-20T14:57:13;8.50;63.90
78028;DHT22;74605;45.864;11.474;2023-12-20T14:59:38;8.50;63.80
78028;DHT22;74605;45.864;11.474;2023-12-20T15:02:04;8.60;63.80
78028;DHT22;74605;45.864;11.474;2023-12-20T15:04:31;8.60;63.60
78028;DHT22;74605;45.864;11.474;2023-12-20T15:06:57;8.40;63.50
78028;DHT22;74605;45.864;11.474;2023-12-20T15:09:23;8.40;63.80
78028;DHT22;74605;45.864;11.474;2023-12-20T15:11:50;8.50;63.90
78028;DHT22;74605;45.864;11.474;2023-12-20T15:14:16;8.50;64.40
78028;DHT22;74605;45.864;11.474;2023-12-20T15:16:46;8.30;64.10
78028;DHT22;74605;45.864;11.474;2023-12-20T15:19:13;8.10;64.10
78028;DHT22;74605;45.864;11.474;2023-12-20T15:21:39;8.00;64.20
78028;DHT22;74605;45.864;11.474;2023-12-20T15:24:11;7.60;64.70
78028;DHT22;74605;45.864;11.474;2023-12-20T15:26:42;7.20;65.20
78028;DHT22;74605;45.864;11.474;2023-12-20T15:29:09;6.90;65.40
78028;DHT22;74605;45.864;11.474;2023-12-20T15:31:45;7.10;65.80
78028;DHT22;74605;45.864;11.474;2023-12-20T15:34:11;6.50;65.90
78028;DHT22;74605;45.864;11.474;2023-12-20T15:36:38;6.40;66.10